KP69

Lowell Airport

Idaho, USA
METAR KP69 181152Z AUTO 00000KT 02/02 A3027 RMK AO1 SLP259 T00220017 10044 20017 51003
Observed Flight Rules
Oct-18 @ 11:52 UTC (23 minutes ago)
Temperatures Readings
Current 2°C / 36°F
Dewpoint 2°C / 36°F
Humidity 100%
Altimeter 30.27" Hg
Pressure 1025.9 hPa
Elevation 480
METAR KP69 181152Z AUTO 00000KT 02/02 A3027 RMK AO1 SLP259 T00220017 10044 20017 51003
Observed Flight Rules
Oct-18 @ 11:52 UTC
(23 minutes ago)
Temperature Dewpoint
2°C / 36°F 2°C / 36°F
Humidity Altimeter Pressure
100% 30.27" Hg 1025.9 hPa